createdAt,value
2023-04-25T00:00:51.564Z,37.48
2023-04-25T00:01:51.622Z,37.48
2023-04-25T00:02:51.813Z,37.48
2023-04-25T00:03:52.223Z,37.49
2023-04-25T00:04:51.846Z,37.47
2023-04-25T00:05:51.802Z,37.48
2023-04-25T00:06:51.829Z,37.50
2023-04-25T00:07:51.898Z,37.50
2023-04-25T00:08:51.915Z,37.51
2023-04-25T00:09:51.980Z,37.50
2023-04-25T00:10:52.055Z,37.50
2023-04-25T00:11:52.075Z,37.50
2023-04-25T00:12:52.144Z,37.51
2023-04-25T00:13:52.214Z,37.51
2023-04-25T00:14:52.281Z,37.53
2023-04-25T00:15:52.427Z,37.53
2023-04-25T00:16:52.368Z,37.52
2023-04-25T00:17:52.461Z,37.51
2023-04-25T00:18:52.484Z,37.53
2023-04-25T00:19:52.473Z,37.53
2023-04-25T00:20:52.551Z,37.53
2023-04-25T00:21:52.550Z,37.53
2023-04-25T00:22:52.638Z,37.54
2023-04-25T00:23:52.834Z,37.51
2023-04-25T00:24:52.662Z,37.52
2023-04-25T00:25:52.689Z,37.53
2023-04-25T00:26:52.760Z,37.55
2023-04-25T00:27:52.769Z,37.52
2023-04-25T00:28:52.838Z,37.54
2023-04-25T00:29:52.864Z,37.52
2023-04-25T00:30:52.941Z,37.54
2023-04-25T00:31:52.999Z,37.55
2023-04-25T00:32:53.062Z,37.55
2023-04-25T00:33:53.290Z,37.56
2023-04-25T00:34:53.107Z,37.55
2023-04-25T00:35:53.120Z,37.55
2023-04-25T00:36:53.192Z,37.55
2023-04-25T00:37:53.225Z,37.55
2023-04-25T00:38:53.251Z,37.57
2023-04-25T00:39:55.248Z,37.59
2023-04-25T00:40:53.372Z,37.56
2023-04-25T00:41:53.435Z,37.56
2023-04-25T00:42:53.476Z,37.56
2023-04-25T00:43:53.702Z,37.59
2023-04-25T00:44:53.609Z,37.57
2023-04-25T00:45:53.629Z,37.58
2023-04-25T00:46:53.751Z,37.59
2023-04-25T00:47:53.810Z,37.58
2023-04-25T00:48:53.775Z,37.60
2023-04-25T00:49:53.841Z,37.59
2023-04-25T00:50:53.933Z,37.58
2023-04-25T00:51:53.938Z,37.60
2023-04-25T00:52:54.007Z,37.60
2023-04-25T00:53:54.123Z,37.56
2023-04-25T00:54:54.100Z,37.62
2023-04-25T00:55:54.135Z,37.58
2023-04-25T00:56:54.164Z,37.61
2023-04-25T00:57:54.197Z,37.61
2023-04-25T00:58:54.251Z,37.61
2023-04-25T00:59:54.306Z,37.62
2023-04-25T01:00:54.424Z,37.59
2023-04-25T01:01:54.409Z,37.62
2023-04-25T01:02:54.585Z,37.60
2023-04-25T01:03:54.860Z,37.63
2023-04-25T01:04:54.551Z,37.63
2023-04-25T01:05:54.652Z,37.61
2023-04-25T01:06:54.634Z,37.63
2023-04-25T01:07:54.708Z,37.60
2023-04-25T01:08:54.765Z,37.61
2023-04-25T01:09:54.830Z,37.64
2023-04-25T01:10:54.862Z,37.63
2023-04-25T01:11:54.898Z,37.65
2023-04-25T01:12:54.949Z,37.64
2023-04-25T01:13:55.009Z,37.64
2023-04-25T01:14:55.048Z,37.63
2023-04-25T01:15:55.062Z,37.63
2023-04-25T01:16:55.150Z,37.64
2023-04-25T01:17:55.206Z,37.65
2023-04-25T01:18:55.182Z,37.66
2023-04-25T01:19:55.248Z,37.66
2023-04-25T01:20:55.239Z,37.65
2023-04-25T01:21:55.257Z,37.66
2023-04-25T01:22:55.330Z,37.65
2023-04-25T01:23:55.335Z,37.68
2023-04-25T01:24:55.384Z,37.69
2023-04-25T01:25:55.430Z,37.69
2023-04-25T01:26:55.500Z,37.66
2023-04-25T01:27:55.547Z,37.66
2023-04-25T01:28:55.611Z,37.69
2023-04-25T01:29:55.618Z,37.67
2023-04-25T01:30:55.816Z,37.67
2023-04-25T01:31:55.723Z,37.68
2023-04-25T01:32:55.759Z,37.69
2023-04-25T01:33:55.757Z,37.69
2023-04-25T01:34:55.800Z,37.68
2023-04-25T01:35:55.830Z,37.70
2023-04-25T01:36:55.854Z,37.71
2023-04-25T01:37:55.930Z,37.70
2023-04-25T01:38:55.945Z,37.70
2023-04-25T01:39:56.271Z,37.73
2023-04-25T01:40:55.987Z,37.73
2023-04-25T01:41:57.417Z,37.72
2023-04-25T01:42:56.056Z,37.71
2023-04-25T01:43:56.125Z,37.70
2023-04-25T01:44:56.149Z,37.71
2023-04-25T01:45:56.256Z,37.71
2023-04-25T01:46:56.235Z,37.73
2023-04-25T01:47:56.324Z,37.71
2023-04-25T01:48:56.342Z,37.71
2023-04-25T01:49:56.391Z,37.72
2023-04-25T01:50:56.458Z,37.74
2023-04-25T01:51:56.495Z,37.73
2023-04-25T01:52:56.554Z,37.72
2023-04-25T01:53:56.592Z,37.74
2023-04-25T01:54:56.654Z,37.74
2023-04-25T01:55:56.728Z,37.77
2023-04-25T01:56:56.735Z,37.72
2023-04-25T01:57:56.793Z,37.76
2023-04-25T01:58:56.816Z,37.73
2023-04-25T01:59:56.904Z,37.77
2023-04-25T02:00:56.952Z,37.76
2023-04-25T02:01:57.062Z,37.75
2023-04-25T02:02:57.095Z,37.75
2023-04-25T02:03:57.496Z,37.74
2023-04-25T02:04:57.193Z,37.76
2023-04-25T02:05:57.213Z,37.76
2023-04-25T02:06:57.293Z,37.76
2023-04-25T02:07:57.293Z,37.74
2023-04-25T02:08:57.291Z,37.77
2023-04-25T02:09:57.330Z,37.74
2023-04-25T02:10:57.347Z,37.76
2023-04-25T02:11:57.382Z,37.78
2023-04-25T02:12:57.356Z,37.76
2023-04-25T02:13:57.405Z,37.76
2023-04-25T02:14:57.430Z,37.76
2023-04-25T02:15:57.572Z,37.75
2023-04-25T02:16:57.586Z,37.78
2023-04-25T02:17:57.501Z,37.78
2023-04-25T02:18:57.510Z,37.79
2023-04-25T02:19:57.560Z,37.79
2023-04-25T02:20:57.555Z,37.78
2023-04-25T02:21:57.572Z,37.79
2023-04-25T02:22:57.585Z,37.78
2023-04-25T02:23:57.602Z,37.79
2023-04-25T02:24:57.628Z,37.79
2023-04-25T02:25:57.649Z,37.82
2023-04-25T02:26:57.649Z,37.79
2023-04-25T02:27:57.671Z,37.81
2023-04-25T02:28:57.690Z,37.79
2023-04-25T02:29:57.725Z,37.80
2023-04-25T02:30:57.789Z,37.80
2023-04-25T02:31:57.813Z,37.82
2023-04-25T02:32:57.853Z,37.82
2023-04-25T02:33:57.806Z,37.82
2023-04-25T02:34:57.841Z,37.80
2023-04-25T02:35:57.840Z,37.83
2023-04-25T02:36:57.843Z,37.81
2023-04-25T02:37:57.848Z,37.79
2023-04-25T02:38:57.873Z,37.81
2023-04-25T02:39:57.892Z,37.80
2023-04-25T02:40:57.849Z,37.83
2023-04-25T02:41:57.859Z,37.84
2023-04-25T02:42:57.863Z,37.83
2023-04-25T02:43:57.851Z,37.82
2023-04-25T02:44:57.882Z,37.82
2023-04-25T02:45:57.844Z,37.81
2023-04-25T02:46:57.859Z,37.84
2023-04-25T02:47:57.941Z,37.84
2023-04-25T02:48:57.858Z,37.80
2023-04-25T02:49:57.866Z,37.82
2023-04-25T02:50:57.889Z,37.86
2023-04-25T02:51:57.856Z,37.84
2023-04-25T02:52:57.871Z,37.85
2023-04-25T02:53:57.890Z,37.84
2023-04-25T02:54:57.907Z,37.82
2023-04-25T02:55:57.925Z,37.84
2023-04-25T02:56:57.933Z,37.84
2023-04-25T02:57:57.923Z,37.85
2023-04-25T02:58:57.935Z,37.83
2023-04-25T02:59:57.941Z,37.84
2023-04-25T03:00:58.010Z,37.86
2023-04-25T03:01:57.939Z,37.87
2023-04-25T03:02:58.084Z,37.84
2023-04-25T03:03:57.965Z,37.85
2023-04-25T03:04:57.977Z,37.85
2023-04-25T03:05:57.956Z,37.84
2023-04-25T03:06:57.996Z,37.85
2023-04-25T03:07:57.987Z,37.85
2023-04-25T03:08:58.016Z,37.86
2023-04-25T03:09:57.971Z,37.85
2023-04-25T03:10:57.960Z,37.85
2023-04-25T03:11:58.004Z,37.86
2023-04-25T03:12:57.971Z,37.86
2023-04-25T03:13:57.953Z,37.85
2023-04-25T03:14:57.978Z,37.85
2023-04-25T03:15:57.953Z,37.85
2023-04-25T03:16:58.023Z,37.85
2023-04-25T03:17:57.995Z,37.87
2023-04-25T03:18:57.959Z,37.86
2023-04-25T03:19:57.966Z,37.86
2023-04-25T03:20:57.973Z,37.88
2023-04-25T03:21:57.946Z,37.86
2023-04-25T03:22:57.978Z,37.86
2023-04-25T03:23:57.947Z,37.86
2023-04-25T03:24:57.954Z,37.85
2023-04-25T03:25:57.959Z,37.88
2023-04-25T03:26:57.940Z,37.86
2023-04-25T03:27:57.953Z,37.86
2023-04-25T03:28:57.954Z,37.88
2023-04-25T03:29:57.935Z,37.85
2023-04-25T03:30:57.929Z,37.91
2023-04-25T03:31:57.974Z,37.91
2023-04-25T03:32:57.947Z,37.90
2023-04-25T03:33:57.916Z,37.89
2023-04-25T03:34:57.904Z,37.90
2023-04-25T03:35:57.870Z,37.92
2023-04-25T03:36:57.913Z,37.91
2023-04-25T03:37:57.898Z,37.90
2023-04-25T03:38:57.931Z,37.91
2023-04-25T03:39:57.878Z,37.91
2023-04-25T03:40:57.911Z,37.91
2023-04-25T03:41:57.871Z,37.92
2023-04-25T03:42:57.886Z,37.92
2023-04-25T03:43:57.871Z,37.92
2023-04-25T03:44:57.877Z,37.93
2023-04-25T03:45:57.928Z,37.92
2023-04-25T03:46:57.862Z,37.93
2023-04-25T03:47:57.918Z,37.93
2023-04-25T03:48:57.868Z,37.94
2023-04-25T03:49:57.861Z,37.93
2023-04-25T03:50:57.861Z,37.95
2023-04-25T03:51:57.895Z,37.95
2023-04-25T03:52:57.862Z,37.97
2023-04-25T03:53:57.888Z,37.95
2023-04-25T03:54:57.863Z,37.95
2023-04-25T03:55:57.869Z,37.94
2023-04-25T03:56:57.898Z,37.96
2023-04-25T03:57:57.870Z,37.97
2023-04-25T03:58:57.872Z,37.97
2023-04-25T03:59:57.892Z,37.96
2023-04-25T04:00:57.861Z,37.97
2023-04-25T04:01:57.859Z,37.98
2023-04-25T04:02:57.918Z,37.98
2023-04-25T04:03:58.197Z,37.97
2023-04-25T04:04:58.027Z,37.98
2023-04-25T04:05:57.940Z,37.98
2023-04-25T04:06:57.834Z,37.99
2023-04-25T04:07:57.832Z,38.00
2023-04-25T04:08:57.835Z,38.00
2023-04-25T04:09:57.829Z,37.99
2023-04-25T04:10:57.815Z,38.01
2023-04-25T04:11:57.816Z,38.01
2023-04-25T04:12:57.837Z,38.01
2023-04-25T04:13:57.800Z,38.00
2023-04-25T04:14:57.819Z,37.99
2023-04-25T04:15:57.839Z,37.99
2023-04-25T04:16:57.792Z,38.00
2023-04-25T04:17:57.830Z,38.02
2023-04-25T04:18:57.800Z,38.02
2023-04-25T04:19:57.802Z,38.01
2023-04-25T04:20:57.816Z,38.02
2023-04-25T04:21:57.807Z,38.02
2023-04-25T04:22:57.820Z,38.03
2023-04-25T04:23:57.825Z,38.03
2023-04-25T04:24:57.868Z,38.03
2023-04-25T04:25:57.815Z,38.04
2023-04-25T04:26:57.826Z,38.03
2023-04-25T04:27:57.846Z,38.03
2023-04-25T04:28:57.821Z,38.07
2023-04-25T04:29:57.860Z,38.03
2023-04-25T04:30:57.870Z,38.04
2023-04-25T04:31:57.872Z,38.03
2023-04-25T04:32:57.869Z,38.05
2023-04-25T04:33:57.821Z,38.05
2023-04-25T04:34:58.308Z,38.03
2023-04-25T04:35:57.869Z,38.06
2023-04-25T04:36:57.868Z,38.07
2023-04-25T04:37:57.835Z,38.07
2023-04-25T04:38:57.854Z,38.05
2023-04-25T04:39:57.826Z,38.05
2023-04-25T04:40:57.855Z,38.04
2023-04-25T04:41:57.830Z,38.04
2023-04-25T04:42:57.849Z,38.06
2023-04-25T04:43:57.864Z,38.04
2023-04-25T04:44:57.855Z,38.07
2023-04-25T04:45:57.836Z,38.08
2023-04-25T04:46:57.896Z,38.06
2023-04-25T04:47:57.898Z,38.05
2023-04-25T04:48:57.838Z,38.05
2023-04-25T04:49:57.846Z,38.04
2023-04-25T04:50:57.881Z,38.04
2023-04-25T04:51:59.665Z,38.03
2023-04-25T04:52:57.814Z,38.04
2023-04-25T04:53:57.817Z,38.05
2023-04-25T04:54:57.845Z,38.02
2023-04-25T04:55:57.826Z,38.02
2023-04-25T04:56:57.864Z,38.03
2023-04-25T04:57:57.842Z,38.01
2023-04-25T04:58:57.839Z,38.03
2023-04-25T04:59:57.828Z,38.00
2023-04-25T05:00:57.852Z,38.01
2023-04-25T05:01:57.838Z,38.02
2023-04-25T05:02:57.886Z,37.99
2023-04-25T05:03:58.260Z,37.98
2023-04-25T05:04:58.058Z,37.98
2023-04-25T05:05:57.805Z,37.98
2023-04-25T05:06:57.809Z,37.96
2023-04-25T05:07:57.798Z,37.97
2023-04-25T05:08:57.799Z,37.97
2023-04-25T05:09:57.807Z,37.96
2023-04-25T05:10:57.818Z,37.96
2023-04-25T05:11:57.802Z,37.93
2023-04-25T05:12:57.813Z,37.96
2023-04-25T05:13:57.789Z,37.94
2023-04-25T05:14:57.790Z,37.95
2023-04-25T05:15:57.789Z,37.92
2023-04-25T05:16:57.794Z,37.93
2023-04-25T05:17:57.868Z,37.92
2023-04-25T05:18:57.785Z,37.92
2023-04-25T05:19:57.800Z,37.91
2023-04-25T05:20:57.811Z,37.92
2023-04-25T05:21:57.789Z,37.87
2023-04-25T05:22:57.805Z,37.86
2023-04-25T05:23:57.766Z,37.89
2023-04-25T05:24:57.791Z,37.90
2023-04-25T05:25:57.811Z,37.83
2023-04-25T05:26:57.798Z,37.81
2023-04-25T05:27:57.793Z,37.74
2023-04-25T05:28:57.772Z,37.82
2023-04-25T05:29:57.757Z,37.78
2023-04-25T05:30:57.803Z,37.77
2023-04-25T05:31:57.930Z,37.70
2023-04-25T05:32:58.349Z,37.64
2023-04-25T05:33:57.918Z,37.80
2023-04-25T05:34:58.018Z,38.01
2023-04-25T05:35:58.031Z,38.29
2023-04-25T05:36:58.099Z,38.40
2023-04-25T05:37:58.386Z,39.23
2023-04-25T05:38:58.266Z,39.42
2023-04-25T05:39:58.267Z,39.96
2023-04-25T05:40:58.295Z,39.32
2023-04-25T05:41:58.325Z,39.59
2023-04-25T05:42:58.944Z,39.67
2023-04-25T05:43:59.621Z,39.68
2023-04-25T05:44:58.463Z,40.23
2023-04-25T05:45:58.508Z,40.32
2023-04-25T05:46:58.444Z,40.43
2023-04-25T05:47:58.910Z,40.77
2023-04-25T05:48:58.468Z,41.22
2023-04-25T05:49:58.478Z,41.05
2023-04-25T05:50:58.885Z,41.03
2023-04-25T05:51:58.487Z,40.91
2023-04-25T05:52:58.502Z,41.19
2023-04-25T05:53:58.506Z,41.32
2023-04-25T05:54:58.520Z,41.35
2023-04-25T05:55:58.565Z,41.36
2023-04-25T05:56:58.659Z,41.50
2023-04-25T05:57:58.595Z,41.50
2023-04-25T05:58:58.592Z,41.22
2023-04-25T05:59:58.564Z,40.80
2023-04-25T06:00:58.563Z,40.84
2023-04-25T06:01:58.607Z,40.92
2023-04-25T06:02:58.679Z,40.79
2023-04-25T06:03:58.975Z,40.78
2023-04-25T06:04:58.816Z,40.53
2023-04-25T06:05:58.643Z,40.61
2023-04-25T06:06:58.590Z,40.55
2023-04-25T06:07:58.575Z,39.94
2023-04-25T06:08:58.576Z,40.33
2023-04-25T06:09:58.622Z,40.48
2023-04-25T06:10:58.642Z,40.51
2023-04-25T06:11:58.598Z,40.49
2023-04-25T06:12:58.585Z,40.23
2023-04-25T06:13:58.587Z,40.47
2023-04-25T06:14:58.618Z,40.35
2023-04-25T06:15:58.627Z,40.16
2023-04-25T06:16:58.592Z,40.36
2023-04-25T06:17:58.626Z,40.38
2023-04-25T06:18:58.634Z,40.23
2023-04-25T06:19:58.601Z,40.21
2023-04-25T06:20:58.624Z,40.05
2023-04-25T06:21:58.694Z,40.21
2023-04-25T06:22:58.747Z,40.28
2023-04-25T06:23:58.798Z,40.27
2023-04-25T06:24:58.878Z,40.47
2023-04-25T06:25:58.945Z,40.43
2023-04-25T06:26:58.983Z,40.55
2023-04-25T06:27:59.051Z,40.61
2023-04-25T06:28:59.111Z,40.64
2023-04-25T06:29:59.197Z,40.60
2023-04-25T06:30:59.237Z,40.62
2023-04-25T06:31:59.289Z,40.53
2023-04-25T06:32:59.425Z,40.54
2023-04-25T06:33:59.399Z,40.58
2023-04-25T06:34:59.505Z,40.69
2023-04-25T06:35:59.445Z,40.50
2023-04-25T06:36:59.500Z,40.54
2023-04-25T06:37:59.870Z,40.58
2023-04-25T06:38:59.564Z,40.53
2023-04-25T06:39:59.583Z,40.53
2023-04-25T06:40:59.655Z,40.72
2023-04-25T06:41:59.632Z,40.61
2023-04-25T06:42:59.909Z,40.63
2023-04-25T06:43:59.671Z,40.64
2023-04-25T06:44:59.674Z,40.64
2023-04-25T06:45:59.677Z,40.69
2023-04-25T06:46:59.708Z,40.73
2023-04-25T06:47:59.749Z,40.75
2023-04-25T06:48:59.730Z,40.85
2023-04-25T06:49:59.729Z,40.87
2023-04-25T06:50:59.756Z,40.88
2023-04-25T06:51:59.763Z,40.95
2023-04-25T06:52:59.757Z,40.97
2023-04-25T06:53:59.826Z,41.19
2023-04-25T06:54:59.797Z,41.17
2023-04-25T06:55:59.874Z,41.39
2023-04-25T06:56:59.855Z,41.60
2023-04-25T06:57:59.892Z,41.74
2023-04-25T06:58:59.829Z,41.77
2023-04-25T07:00:02.085Z,41.99
2023-04-25T07:01:00.152Z,41.92
2023-04-25T07:02:00.046Z,42.24
2023-04-25T07:03:00.168Z,42.21
2023-04-25T07:04:00.381Z,42.33
2023-04-25T07:05:00.056Z,42.33
2023-04-25T07:06:00.090Z,42.46
2023-04-25T07:07:00.091Z,42.55
2023-04-25T07:08:00.054Z,42.66
2023-04-25T07:09:00.059Z,42.90
2023-04-25T07:10:00.056Z,42.91
2023-04-25T07:11:00.071Z,42.89
2023-04-25T07:12:00.050Z,42.97
2023-04-25T07:13:00.376Z,42.99
2023-04-25T07:14:00.066Z,43.18
2023-04-25T07:15:00.043Z,43.17
2023-04-25T07:16:00.415Z,43.34
2023-04-25T07:17:00.177Z,43.40
2023-04-25T07:18:00.479Z,43.44
2023-04-25T07:19:00.123Z,43.56
2023-04-25T07:20:00.193Z,43.63
2023-04-25T07:21:00.144Z,43.84
2023-04-25T07:22:00.205Z,43.94
2023-04-25T07:23:00.289Z,44.00
2023-04-25T07:24:00.299Z,44.06
2023-04-25T07:25:00.374Z,44.24
2023-04-25T07:26:00.426Z,44.39
2023-04-25T07:27:00.464Z,44.43
2023-04-25T07:28:00.573Z,44.49
2023-04-25T07:29:00.613Z,44.62
2023-04-25T07:30:00.697Z,44.76
2023-04-25T07:31:00.744Z,44.86
2023-04-25T07:32:00.877Z,44.79
2023-04-25T07:33:01.476Z,44.89
2023-04-25T07:34:02.234Z,43.98
2023-04-25T07:35:01.082Z,43.71
2023-04-25T07:36:01.403Z,43.70
2023-04-25T07:37:01.087Z,43.74
2023-04-25T07:38:01.948Z,43.11
2023-04-25T07:39:01.108Z,41.19
2023-04-25T07:40:01.118Z,41.52
2023-04-25T07:41:01.401Z,41.52
2023-04-25T07:42:01.147Z,40.45
2023-04-25T07:43:01.341Z,40.12
2023-04-25T07:44:01.157Z,39.82
2023-04-25T07:45:01.172Z,39.67
2023-04-25T07:46:01.268Z,39.68
2023-04-25T07:47:03.161Z,39.37
2023-04-25T07:48:01.261Z,39.31
2023-04-25T07:49:01.930Z,38.89
2023-04-25T07:50:01.211Z,38.77
2023-04-25T07:51:01.197Z,38.57
2023-04-25T07:52:01.210Z,38.48
2023-04-25T07:53:01.502Z,38.43
2023-04-25T07:54:01.423Z,38.52
2023-04-25T07:55:01.189Z,38.67
2023-04-25T07:56:01.206Z,38.54
2023-04-25T07:57:01.168Z,38.14
2023-04-25T07:58:01.255Z,37.72
2023-04-25T07:59:01.387Z,37.59
2023-04-25T08:00:01.187Z,37.72
2023-04-25T08:01:01.214Z,37.54
2023-04-25T08:02:01.208Z,37.43
2023-04-25T08:03:01.253Z,37.38
2023-04-25T08:04:01.414Z,37.51
2023-04-25T08:05:01.621Z,37.37
2023-04-25T08:06:03.433Z,37.13
2023-04-25T08:07:01.109Z,37.20
2023-04-25T08:08:01.081Z,37.16
2023-04-25T08:09:01.425Z,37.14
2023-04-25T08:10:01.114Z,36.99
2023-04-25T08:11:01.423Z,36.75
2023-04-25T08:12:01.134Z,36.71
2023-04-25T08:13:01.063Z,36.65
2023-04-25T08:14:01.078Z,36.61
2023-04-25T08:15:01.095Z,36.78
2023-04-25T08:16:01.448Z,36.69
2023-04-25T08:17:01.181Z,36.60
2023-04-25T08:18:01.074Z,36.70
2023-04-25T08:19:01.104Z,36.58
2023-04-25T08:20:01.026Z,36.46
2023-04-25T08:21:01.030Z,36.39
2023-04-25T08:22:00.987Z,36.37
2023-04-25T08:23:00.963Z,36.33
2023-04-25T08:24:00.985Z,36.26
2023-04-25T08:25:00.959Z,36.82
2023-04-25T08:26:01.041Z,37.06
2023-04-25T08:27:01.907Z,37.10
2023-04-25T08:28:01.103Z,36.51
2023-04-25T08:29:01.413Z,36.27
2023-04-25T08:30:00.920Z,35.94
2023-04-25T08:31:01.053Z,35.83
2023-04-25T08:32:00.977Z,35.68
2023-04-25T08:33:00.928Z,35.44
2023-04-25T08:34:00.969Z,35.47
2023-04-25T08:35:01.001Z,35.33
2023-04-25T08:36:00.974Z,35.37
2023-04-25T08:37:01.022Z,35.40
2023-04-25T08:38:00.918Z,36.61
2023-04-25T08:39:01.079Z,36.83
2023-04-25T08:40:00.861Z,36.65
2023-04-25T08:41:00.869Z,36.98
2023-04-25T08:42:00.929Z,37.89
2023-04-25T08:43:00.857Z,38.09
2023-04-25T08:44:00.923Z,38.71
2023-04-25T08:45:00.872Z,38.61
2023-04-25T08:46:00.813Z,38.59
2023-04-25T08:47:00.853Z,38.86
2023-04-25T08:48:00.856Z,38.81
2023-04-25T08:49:00.794Z,39.02
2023-04-25T08:50:00.815Z,38.83
2023-04-25T08:51:00.947Z,38.79
2023-04-25T08:52:00.773Z,38.33
2023-04-25T08:53:00.954Z,38.54
2023-04-25T08:54:08.926Z,38.34
2023-04-25T08:55:01.843Z,38.19
2023-04-25T08:56:00.769Z,37.83
2023-04-25T08:57:00.768Z,37.68
2023-04-25T08:58:00.797Z,37.50
2023-04-25T08:59:02.458Z,36.99
2023-04-25T09:00:00.850Z,36.65
2023-04-25T09:01:00.770Z,36.78
2023-04-25T09:02:00.737Z,37.03
2023-04-25T09:03:00.924Z,37.37
2023-04-25T09:04:00.802Z,37.57
2023-04-25T09:05:00.695Z,37.63
2023-04-25T09:06:00.726Z,36.56
2023-04-25T09:07:00.717Z,36.05
2023-04-25T09:08:00.750Z,36.20
2023-04-25T09:09:00.726Z,35.75
2023-04-25T09:10:00.728Z,36.17
2023-04-25T09:11:00.716Z,36.68
2023-04-25T09:12:00.858Z,36.87
2023-04-25T09:13:00.726Z,36.92
2023-04-25T09:14:00.734Z,37.23
2023-04-25T09:15:00.734Z,37.01
2023-04-25T09:16:00.734Z,37.06
2023-04-25T09:17:01.031Z,37.13
2023-04-25T09:18:00.761Z,37.25
2023-04-25T09:19:00.772Z,37.36
2023-04-25T09:20:00.736Z,37.54
2023-04-25T09:21:02.241Z,37.56
2023-04-25T09:22:01.714Z,37.54
2023-04-25T09:23:00.726Z,37.51
2023-04-25T09:24:00.707Z,37.43
2023-04-25T09:25:00.717Z,37.34
2023-04-25T09:26:00.676Z,37.25
2023-04-25T09:27:00.708Z,37.09
2023-04-25T09:28:00.740Z,37.02
2023-04-25T09:29:00.669Z,36.94
2023-04-25T09:30:00.747Z,36.95
2023-04-25T09:31:00.838Z,36.86
2023-04-25T09:32:00.972Z,36.90
2023-04-25T09:33:00.985Z,36.87
2023-04-25T09:34:01.325Z,35.95
2023-04-25T09:35:01.006Z,34.61
2023-04-25T09:36:00.978Z,34.07
2023-04-25T09:37:01.485Z,33.70
2023-04-25T09:38:00.989Z,33.54
2023-04-25T09:39:01.036Z,33.32
2023-04-25T09:40:01.009Z,32.98
2023-04-25T09:41:02.155Z,32.95
2023-04-25T09:42:01.146Z,32.81
2023-04-25T09:43:01.126Z,32.55
2023-04-25T09:44:01.531Z,32.27
2023-04-25T09:45:01.215Z,32.05
2023-04-25T09:46:01.309Z,31.91
2023-04-25T09:47:01.506Z,31.85
2023-04-25T09:48:01.353Z,31.73
2023-04-25T09:49:01.473Z,31.77
2023-04-25T09:50:01.535Z,31.54
2023-04-25T09:51:02.475Z,31.50
2023-04-25T09:52:02.086Z,31.35
2023-04-25T09:53:01.593Z,31.16
2023-04-25T09:54:01.658Z,31.10
2023-04-25T09:55:01.761Z,31.08
2023-04-25T09:56:01.821Z,31.12
2023-04-25T09:57:01.929Z,31.10
2023-04-25T09:58:02.019Z,31.10
2023-04-25T09:59:02.015Z,30.95
2023-04-25T10:00:02.130Z,30.85
2023-04-25T10:01:02.126Z,30.71
2023-04-25T10:02:02.184Z,30.63
2023-04-25T10:03:02.254Z,30.66
2023-04-25T10:04:02.697Z,30.95
2023-04-25T10:05:02.542Z,30.79
2023-04-25T10:06:03.228Z,30.82
2023-04-25T10:07:02.490Z,30.95
2023-04-25T10:08:02.184Z,30.90
2023-04-25T10:09:02.235Z,30.93
2023-04-25T10:10:02.205Z,31.00
2023-04-25T10:11:02.180Z,31.07
2023-04-25T10:12:02.518Z,31.02
2023-04-25T10:13:02.239Z,30.71
2023-04-25T10:14:02.189Z,30.91
2023-04-25T10:15:02.240Z,30.96
2023-04-25T10:16:02.386Z,31.01
2023-04-25T10:17:02.395Z,31.11
2023-04-25T10:18:02.324Z,31.17
2023-04-25T10:19:02.491Z,31.04
2023-04-25T10:20:02.449Z,31.09
2023-04-25T10:21:02.423Z,31.19
2023-04-25T10:22:02.520Z,31.30
2023-04-25T10:23:02.448Z,31.09
2023-04-25T10:24:02.510Z,31.15
2023-04-25T10:25:02.518Z,31.30
2023-04-25T10:26:02.512Z,31.43
2023-04-25T10:27:02.967Z,32.49
2023-04-25T10:28:02.552Z,33.91
2023-04-25T10:29:02.562Z,34.04
2023-04-25T10:30:02.573Z,34.48
2023-04-25T10:31:02.711Z,35.04
2023-04-25T10:32:02.636Z,35.58
2023-04-25T10:33:02.681Z,36.09
2023-04-25T10:34:02.781Z,36.42
2023-04-25T10:35:02.783Z,36.61
2023-04-25T10:36:02.812Z,36.96
2023-04-25T10:37:02.823Z,37.10
2023-04-25T10:38:02.891Z,37.25
2023-04-25T10:39:02.856Z,37.33
2023-04-25T10:40:02.871Z,37.45
2023-04-25T10:41:02.851Z,37.66
2023-04-25T10:42:02.850Z,37.79
2023-04-25T10:43:02.821Z,37.99
2023-04-25T10:44:02.822Z,38.21
2023-04-25T10:45:02.916Z,38.26
2023-04-25T10:46:02.872Z,38.46
2023-04-25T10:47:03.081Z,38.57
2023-04-25T10:48:03.043Z,38.88
2023-04-25T10:49:03.054Z,38.71
2023-04-25T10:50:03.514Z,38.88
2023-04-25T10:51:03.185Z,38.96
2023-04-25T10:52:03.209Z,39.19
2023-04-25T10:53:03.275Z,39.26
2023-04-25T10:54:03.333Z,39.39
2023-04-25T10:55:03.395Z,39.62
2023-04-25T10:56:03.407Z,39.57
2023-04-25T10:57:03.470Z,39.68
2023-04-25T10:58:03.501Z,39.82
2023-04-25T10:59:03.519Z,39.91
2023-04-25T11:00:03.565Z,40.01
2023-04-25T11:01:03.632Z,40.04
2023-04-25T11:02:03.723Z,40.22
2023-04-25T11:03:03.801Z,40.40
2023-04-25T11:04:03.870Z,40.48
2023-04-25T11:05:03.715Z,40.63
2023-04-25T11:06:03.749Z,40.71
2023-04-25T11:07:07.135Z,40.76
2023-04-25T11:09:04.733Z,41.13
2023-04-25T11:10:03.969Z,41.39
2023-04-25T11:11:03.733Z,41.60
2023-04-25T11:12:03.990Z,41.62
2023-04-25T11:13:03.719Z,41.82
2023-04-25T11:14:04.484Z,41.94
2023-04-25T11:14:38.051Z,41.10
2023-04-25T11:15:03.990Z,42.01
2023-04-25T11:16:12.533Z,42.43
2023-04-25T11:17:05.087Z,42.08
2023-04-25T11:18:04.063Z,41.96
2023-04-25T11:19:03.914Z,41.58
2023-04-25T11:20:03.935Z,41.55
2023-04-25T11:21:03.918Z,41.52
2023-04-25T11:22:04.063Z,41.46
2023-04-25T11:24:03.985Z,41.43
2023-04-25T11:25:03.996Z,41.41
2023-04-25T11:26:04.081Z,41.43
2023-04-25T11:27:04.472Z,41.47
2023-04-25T11:28:04.103Z,41.51
2023-04-25T11:29:04.121Z,41.50
2023-04-25T11:30:04.175Z,41.48
2023-04-25T11:31:04.194Z,41.50
2023-04-25T11:32:04.566Z,41.45
2023-04-25T11:33:04.393Z,41.43
2023-04-25T11:34:04.326Z,41.42
2023-04-25T11:35:04.378Z,41.40
2023-04-25T11:36:04.439Z,41.43
2023-04-25T11:37:04.509Z,41.39
2023-04-25T11:38:04.535Z,41.39
2023-04-25T11:39:04.915Z,41.37
2023-04-25T11:40:04.649Z,41.37
2023-04-25T11:41:04.740Z,41.35
2023-04-25T11:42:08.012Z,41.26
2023-04-25T11:43:05.755Z,41.17
2023-04-25T11:44:04.897Z,41.13
2023-04-25T11:45:04.810Z,41.13
2023-04-25T11:46:04.747Z,41.05
2023-04-25T11:47:04.738Z,41.03
2023-04-25T11:48:04.916Z,40.98
2023-04-25T11:49:04.722Z,40.86
2023-04-25T11:50:04.719Z,40.76
2023-04-25T11:51:04.698Z,40.73
2023-04-25T11:52:04.715Z,40.66
2023-04-25T11:53:04.739Z,40.58
2023-04-25T11:54:04.796Z,40.51
2023-04-25T11:55:04.883Z,40.46
2023-04-25T11:56:05.012Z,40.36
2023-04-25T11:57:04.932Z,40.33
2023-04-25T11:58:05.000Z,40.33
2023-04-25T11:59:05.042Z,40.26
2023-04-25T12:00:05.117Z,40.22
2023-04-25T12:01:05.152Z,40.18
2023-04-25T12:02:05.186Z,40.17
2023-04-25T12:03:05.353Z,40.12
2023-04-25T12:04:05.696Z,40.12
2023-04-25T12:05:21.651Z,40.08
2023-04-25T12:06:06.504Z,40.07
2023-04-25T12:07:05.339Z,40.09
2023-04-25T12:08:05.340Z,40.04
2023-04-25T12:09:05.404Z,39.97
2023-04-25T12:10:05.480Z,39.96
2023-04-25T12:11:05.305Z,39.89
2023-04-25T12:12:05.378Z,39.88
2023-04-25T12:13:05.272Z,39.86
2023-04-25T12:14:05.280Z,39.78
2023-04-25T12:15:05.287Z,39.78
2023-04-25T12:16:05.279Z,39.69
2023-04-25T12:17:05.370Z,39.68
2023-04-25T12:18:05.391Z,39.61
2023-04-25T12:19:05.422Z,39.55
2023-04-25T12:20:05.548Z,39.50
2023-04-25T12:21:05.514Z,40.21
2023-04-25T12:22:05.597Z,39.86
2023-04-25T12:23:06.073Z,40.07
2023-04-25T12:24:05.665Z,40.93
2023-04-25T12:25:05.681Z,41.01
2023-04-25T12:26:05.730Z,40.38
2023-04-25T12:27:05.855Z,40.32
2023-04-25T12:28:05.782Z,40.40
2023-04-25T12:29:05.786Z,40.00
2023-04-25T12:30:05.837Z,40.11
2023-04-25T12:31:05.976Z,40.09
2023-04-25T12:32:05.822Z,39.88
2023-04-25T12:33:05.989Z,39.75
2023-04-25T12:34:05.870Z,39.68
2023-04-25T12:35:05.887Z,39.58
2023-04-25T12:36:06.583Z,39.55
2023-04-25T12:37:05.926Z,39.52
2023-04-25T12:38:05.934Z,39.51
2023-04-25T12:39:05.975Z,39.47
2023-04-25T12:40:06.042Z,39.43
2023-04-25T12:41:06.009Z,39.34
2023-04-25T12:42:08.680Z,39.34
2023-04-25T12:43:06.079Z,39.32
2023-04-25T12:44:06.062Z,39.26
2023-04-25T12:45:06.027Z,39.22
2023-04-25T12:46:06.026Z,39.21
2023-04-25T12:47:06.018Z,39.10
2023-04-25T12:48:06.058Z,39.07
2023-04-25T12:49:17.605Z,39.03
2023-04-25T12:50:07.017Z,38.71
2023-04-25T12:51:05.986Z,38.71
2023-04-25T12:52:06.006Z,38.76
2023-04-25T12:53:05.988Z,38.78
2023-04-25T12:54:05.961Z,38.72